Decoded Metar for KMOT (MINOT in ND, USA) (IATA:MOT) | Meteo·Mobile Aviation Weather
aviador You're here:

KMOT Decoded Metar

MINOT in ND, USA
Report Time2019-10-20 22:54:00
UTC Time2019-10-20 23:37:09
Flight Rules vfr VFR
Wind320° at 07 kt
W.Decomp.*RWY 31: 7.0 kt HW 0 kt LCW
RWY 26: 4.5 kt HW 5.4 kt RCW
Visibility9999 m
Phenomena:N/A
Clouds:Overcast 110 Hf
Expected CloudBase > 2,400 ft AGL from Temp-Dew spread
Ceiling11,000 ft
Temp09°C (ISA -3)
Dew Point03°C (66% RH)
AAT5.0°C
QNH1009 hPa
Density Alt1,637 ft
Elevation1,703 ft
Report Wrong Elevation
Raw Report
KMOT 202254Z 32007KT 10SM OVC110 09/03 A2980 RMK AO2 SLP103
T00940028=

Extra information for KMOT:More info

Metar Taf Metar & Taf Last 4 Metars F.Rules Stats Wind Profile Meteogram Temp Stats Airport Information Weather charts Add Link Nearby VenuesMetar ALERT Operation Metar Decoded Social comments

AIRNAV info for KMOT